createdAt,value
2023-04-26T00:01:39.549Z,101063.38
2023-04-26T00:04:06.690Z,101071.16
2023-04-26T00:06:33.564Z,101066.75
2023-04-26T00:09:00.342Z,101067.88
2023-04-26T00:11:26.982Z,101073.41
2023-04-26T00:13:54.643Z,101069.53
2023-04-26T00:16:21.327Z,101065.47
2023-04-26T00:18:49.360Z,101060.59
2023-04-26T00:21:16.048Z,101064.47
2023-04-26T00:23:43.168Z,101059.75
2023-04-26T00:26:10.817Z,101054.09
2023-04-26T00:28:37.438Z,101063.28
2023-04-26T00:31:04.157Z,101064.94
2023-04-26T00:33:30.954Z,101063.81
2023-04-26T00:35:57.628Z,101062.69
2023-04-26T00:38:25.847Z,101056.66
2023-04-26T00:40:52.419Z,101057.78
2023-04-26T00:43:19.613Z,101058.09
2023-04-26T00:45:46.380Z,101058.41
2023-04-26T00:48:13.279Z,101052.91
2023-04-26T00:50:40.029Z,101052.91
2023-04-26T00:53:08.375Z,101037.50
2023-04-26T00:55:35.374Z,101045.78
2023-04-26T00:58:02.255Z,101043.00
2023-04-26T01:00:29.799Z,101045.78
2023-04-26T01:02:56.653Z,101033.91
2023-04-26T01:05:23.526Z,101033.44
2023-04-26T01:07:51.132Z,101019.16
2023-04-26T01:10:17.993Z,101013.47
2023-04-26T01:12:45.133Z,101009.09
2023-04-26T01:15:12.187Z,101010.72
2023-04-26T01:17:38.933Z,101001.63
2023-04-26T01:20:08.641Z,101001.31
2023-04-26T01:22:36.415Z,101001.31
2023-04-26T01:25:04.820Z,101002.44
2023-04-26T01:27:31.438Z,100989.78
2023-04-26T01:29:58.042Z,101003.56
2023-04-26T01:32:26.027Z,101001.63
2023-04-26T01:34:52.656Z,100995.00
2023-04-26T01:37:19.266Z,100991.41
2023-04-26T01:39:46.604Z,100998.56
2023-04-26T01:42:13.420Z,100986.72
2023-04-26T01:44:40.038Z,100980.88
2023-04-26T01:47:09.030Z,100975.34
2023-04-26T01:49:36.054Z,100976.16
2023-04-26T01:52:02.892Z,100975.03
2023-04-26T01:54:29.519Z,100966.78
2023-04-26T01:56:56.131Z,100971.47
2023-04-26T01:59:22.789Z,100968.72
2023-04-26T02:01:49.444Z,100968.38
2023-04-26T02:04:16.341Z,100964.81
2023-04-26T02:06:42.982Z,100967.56
2023-04-26T02:09:10.643Z,100965.63
2023-04-26T02:11:37.301Z,100967.56
2023-04-26T02:14:04.966Z,100967.56
2023-04-26T02:16:32.739Z,100964.31
2023-04-26T02:19:00.177Z,100964.81
2023-04-26T02:21:28.444Z,100965.63
2023-04-26T02:23:55.241Z,100966.09
2023-04-26T02:26:21.945Z,100960.59
2023-04-26T02:28:48.595Z,100959.13
2023-04-26T02:31:15.314Z,100948.91
2023-04-26T02:33:42.090Z,100955.88
2023-04-26T02:36:08.943Z,100953.94
2023-04-26T02:38:36.569Z,100948.75
2023-04-26T02:41:04.494Z,100955.88
2023-04-26T02:43:31.139Z,100947.13
2023-04-26T02:46:00.614Z,100947.13
2023-04-26T02:48:27.245Z,100944.03
2023-04-26T02:50:53.898Z,100946.00
2023-04-26T02:53:20.959Z,100936.09
2023-04-26T02:55:47.571Z,100939.97
2023-04-26T02:58:14.188Z,100932.88
2023-04-26T03:00:46.351Z,100932.38
2023-04-26T03:03:13.645Z,100926.34
2023-04-26T03:05:41.604Z,100927.81
2023-04-26T03:08:08.380Z,100927.50
2023-04-26T03:10:35.043Z,100927.00
2023-04-26T03:13:01.767Z,100925.72
2023-04-26T03:15:28.410Z,100930.44
2023-04-26T03:17:55.111Z,100930.44
2023-04-26T03:20:21.928Z,100920.53
2023-04-26T03:22:48.550Z,100924.41
2023-04-26T03:25:16.268Z,100921.16
2023-04-26T03:27:43.136Z,100911.94
2023-04-26T03:30:10.127Z,100920.22
2023-04-26T03:32:36.943Z,100919.69
2023-04-26T03:35:04.643Z,100916.16
2023-04-26T03:37:32.901Z,100915.81
2023-04-26T03:39:59.534Z,100913.06
2023-04-26T03:42:26.158Z,100916.94
2023-04-26T03:44:52.802Z,100920.03
2023-04-26T03:47:19.395Z,100920.84
2023-04-26T03:49:46.006Z,100917.63
2023-04-26T03:52:12.583Z,100902.19
2023-04-26T03:54:39.246Z,100897.81
2023-04-26T03:57:06.097Z,100897.81
2023-04-26T03:59:32.881Z,100903.31
2023-04-26T04:01:59.572Z,100886.78
2023-04-26T04:04:26.382Z,100885.19
2023-04-26T04:06:53.333Z,100892.94
2023-04-26T04:09:20.024Z,100888.56
2023-04-26T04:11:47.585Z,100885.81
2023-04-26T04:14:14.331Z,100889.69
2023-04-26T04:16:40.952Z,100879.31
2023-04-26T04:19:07.691Z,100883.72
2023-04-26T04:21:34.527Z,100872.19
2023-04-26T04:24:01.349Z,100878.84
2023-04-26T04:26:31.065Z,100877.72
2023-04-26T04:29:00.642Z,100871.69
2023-04-26T04:31:27.349Z,100871.22
2023-04-26T04:33:53.969Z,100872.38
2023-04-26T04:36:20.592Z,100870.25
2023-04-26T04:38:47.368Z,100876.41
2023-04-26T04:41:14.544Z,100876.09
2023-04-26T04:43:41.833Z,100883.19
2023-04-26T04:46:09.580Z,100871.69
2023-04-26T04:48:38.789Z,100879.47
2023-04-26T04:51:06.461Z,100880.13
2023-04-26T04:53:33.074Z,100878.81
2023-04-26T04:55:59.688Z,100879.63
2023-04-26T04:58:26.403Z,100870.84
2023-04-26T05:00:55.634Z,100869.25
2023-04-26T05:03:22.955Z,100869.25
2023-04-26T05:05:49.751Z,100867.31
2023-04-26T05:08:17.408Z,100869.25
2023-04-26T05:10:45.607Z,100869.25
2023-04-26T05:13:12.218Z,100871.19
2023-04-26T05:15:38.783Z,100874.44
2023-04-26T05:18:05.756Z,100859.19
2023-04-26T05:20:32.579Z,100867.16
2023-04-26T05:22:59.190Z,100876.72
2023-04-26T05:25:25.921Z,100868.94
2023-04-26T05:27:54.246Z,100872.50
2023-04-26T05:30:21.151Z,100880.44
2023-04-26T05:32:47.922Z,100882.88
2023-04-26T05:35:14.776Z,100888.06
2023-04-26T05:37:41.666Z,100887.44
2023-04-26T05:40:09.341Z,100885.16
2023-04-26T05:42:36.906Z,100887.25
2023-04-26T05:45:04.046Z,100879.47
2023-04-26T05:47:30.940Z,100877.19
2023-04-26T05:49:57.566Z,100887.59
2023-04-26T05:52:24.239Z,100888.09
2023-04-26T05:54:50.812Z,100889.06
2023-04-26T05:57:19.064Z,100888.41
2023-04-26T05:59:46.149Z,100878.34
2023-04-26T06:02:12.900Z,100872.19
2023-04-26T06:04:39.692Z,100883.69
2023-04-26T06:07:07.271Z,100869.25
2023-04-26T06:09:34.004Z,100873.50
2023-04-26T06:12:00.710Z,100875.25
2023-04-26T06:14:30.677Z,100870.41
2023-04-26T06:16:58.491Z,100874.63
2023-04-26T06:19:25.471Z,100877.22
2023-04-26T06:21:55.624Z,100882.09
2023-04-26T06:24:23.429Z,100888.09
2023-04-26T06:26:50.083Z,100880.47
2023-04-26T06:29:17.365Z,100888.25
2023-04-26T06:31:44.085Z,100889.53
2023-04-26T06:34:10.690Z,100897.31
2023-04-26T06:36:37.352Z,100900.91
2023-04-26T06:39:04.090Z,100904.94
2023-04-26T06:41:31.298Z,100900.56
2023-04-26T06:43:57.929Z,100892.28
2023-04-26T06:46:24.683Z,100896.19
2023-04-26T06:48:54.329Z,100901.72
2023-04-26T06:51:20.961Z,100896.84
2023-04-26T06:53:48.773Z,100893.59
2023-04-26T06:56:15.532Z,100894.72
2023-04-26T06:58:58.991Z,100890.34
2023-04-26T07:01:30.292Z,100905.44
2023-04-26T07:03:59.734Z,100899.25
2023-04-26T07:06:26.922Z,100898.97
2023-04-26T07:08:53.776Z,100898.31
2023-04-26T07:11:22.352Z,100903.53
2023-04-26T07:13:51.144Z,100903.69
2023-04-26T07:16:18.456Z,100905.13
2023-04-26T07:18:45.211Z,100906.09
2023-04-26T07:21:11.909Z,100903.81
2023-04-26T07:23:38.540Z,100900.41
2023-04-26T07:26:05.665Z,100898.13
2023-04-26T07:28:32.451Z,100906.88
2023-04-26T07:31:00.250Z,100894.53
2023-04-26T07:33:27.534Z,100899.06
2023-04-26T07:35:58.181Z,100899.84
2023-04-26T07:38:25.671Z,100890.16
2023-04-26T07:40:52.860Z,100891.66
2023-04-26T07:43:21.797Z,100902.69
2023-04-26T07:45:48.506Z,100895.34
2023-04-26T07:48:15.842Z,100900.88
2023-04-26T07:50:42.479Z,100901.91
2023-04-26T07:53:09.116Z,100904.28
2023-04-26T07:55:37.480Z,100905.78
2023-04-26T07:58:04.537Z,100907.31
2023-04-26T08:00:33.171Z,100900.19
2023-04-26T08:03:00.272Z,100900.56
2023-04-26T08:05:28.009Z,100895.41
2023-04-26T08:07:54.764Z,100900.97
2023-04-26T08:10:21.479Z,100904.56
2023-04-26T08:12:50.452Z,100907.00
2023-04-26T08:15:17.114Z,100903.09
2023-04-26T08:17:43.792Z,100907.69
2023-04-26T08:20:11.003Z,100905.97
2023-04-26T08:22:37.731Z,100914.25
2023-04-26T08:25:05.590Z,100920.41
2023-04-26T08:27:34.488Z,100913.47
2023-04-26T08:30:01.235Z,100922.00
2023-04-26T08:32:27.988Z,100917.13
2023-04-26T08:34:54.818Z,100908.69
2023-04-26T08:37:21.564Z,100910.59
2023-04-26T08:39:48.193Z,100913.00
2023-04-26T08:42:16.391Z,100910.25
2023-04-26T08:44:44.827Z,100908.34
2023-04-26T08:47:31.902Z,100907.91
2023-04-26T08:50:03.878Z,100907.28
2023-04-26T08:52:31.286Z,100907.28
2023-04-26T08:55:00.762Z,100905.88
2023-04-26T08:57:27.906Z,100908.13
2023-04-26T08:59:57.882Z,100902.53
2023-04-26T09:02:25.268Z,100913.81
2023-04-26T09:04:52.145Z,100915.44
2023-04-26T09:07:30.989Z,100909.50
2023-04-26T09:09:58.827Z,100909.78
2023-04-26T09:12:25.706Z,100916.16
2023-04-26T09:14:53.212Z,100905.91
2023-04-26T09:17:31.177Z,100914.84
2023-04-26T09:19:58.993Z,100901.50
2023-04-26T09:22:34.693Z,100912.16
2023-04-26T09:25:05.513Z,100908.59
2023-04-26T09:27:37.471Z,100908.56
2023-04-26T09:30:06.257Z,100904.94
2023-04-26T09:33:05.065Z,100908.19
2023-04-26T09:35:42.886Z,100905.59
2023-04-26T09:38:15.031Z,100912.91
2023-04-26T09:40:43.824Z,100910.88
2023-04-26T09:43:19.197Z,100903.25
2023-04-26T09:45:50.628Z,100912.91
2023-04-26T09:48:30.780Z,100904.84
2023-04-26T09:51:19.083Z,100916.75
2023-04-26T09:53:47.683Z,100906.22
2023-04-26T09:56:15.740Z,100910.19
2023-04-26T09:58:52.498Z,100913.50
2023-04-26T10:01:20.134Z,100916.22
2023-04-26T10:03:47.567Z,100917.78
2023-04-26T10:06:16.501Z,100916.91
2023-04-26T10:08:43.709Z,100915.47
2023-04-26T10:11:13.954Z,100914.38
2023-04-26T10:13:42.207Z,100909.53
2023-04-26T10:16:12.685Z,100915.56
2023-04-26T10:18:39.893Z,100913.34
2023-04-26T10:21:21.874Z,100914.97
2023-04-26T10:23:49.753Z,100913.72
2023-04-26T10:26:53.108Z,100908.94
2023-04-26T10:29:21.365Z,100905.69
2023-04-26T10:32:04.612Z,100912.81
2023-04-26T10:34:33.172Z,100909.84
2023-04-26T10:37:18.420Z,100906.28
2023-04-26T10:39:47.101Z,100909.88
2023-04-26T10:42:25.952Z,100901.94
2023-04-26T10:45:33.325Z,100908.03
2023-04-26T10:48:20.152Z,100909.81
2023-04-26T10:50:59.454Z,100905.00
2023-04-26T10:53:28.177Z,100900.53
2023-04-26T10:55:54.954Z,100902.28
2023-04-26T10:58:34.516Z,100900.78
2023-04-26T11:01:18.826Z,100903.91
2023-04-26T11:03:58.201Z,100897.59
2023-04-26T11:06:29.862Z,100895.34
2023-04-26T11:09:00.168Z,100894.72
2023-04-26T11:11:29.798Z,100906.78
2023-04-26T11:13:57.097Z,100897.78
2023-04-26T11:16:26.785Z,100895.88
2023-04-26T11:18:54.835Z,100895.56
2023-04-26T11:21:21.670Z,100894.19
2023-04-26T11:23:55.572Z,100889.19
2023-04-26T11:26:22.364Z,100882.09
2023-04-26T11:28:49.510Z,100888.50
2023-04-26T11:31:19.059Z,100895.09
2023-04-26T11:33:49.098Z,100904.44
2023-04-26T11:36:17.204Z,100895.13
2023-04-26T11:38:43.909Z,100899.28
2023-04-26T11:41:11.442Z,100900.03
2023-04-26T11:43:40.149Z,100896.06
2023-04-26T11:46:08.653Z,100909.06
2023-04-26T11:48:36.969Z,100905.88
2023-04-26T11:51:05.684Z,100916.00
2023-04-26T11:53:40.574Z,100907.84
2023-04-26T11:56:17.860Z,100913.56
2023-04-26T11:58:53.772Z,100923.25
2023-04-26T12:01:28.334Z,100917.81
2023-04-26T12:03:57.194Z,100909.28
2023-04-26T12:06:42.694Z,100916.59
2023-04-26T12:09:09.626Z,100916.47
2023-04-26T12:11:36.334Z,100926.28
2023-04-26T12:14:03.866Z,100927.53
2023-04-26T12:16:30.844Z,100927.31
2023-04-26T12:18:57.745Z,100928.63
2023-04-26T12:21:25.585Z,100918.03
2023-04-26T12:23:52.918Z,100918.69
2023-04-26T12:26:20.634Z,100928.09
2023-04-26T12:28:47.520Z,100928.59
2023-04-26T12:31:14.238Z,100916.56
2023-04-26T12:33:41.059Z,100921.16
2023-04-26T12:36:11.960Z,100922.44
2023-04-26T12:38:40.668Z,100928.56
2023-04-26T12:41:07.437Z,100918.88
2023-04-26T12:43:34.346Z,100923.50
2023-04-26T12:46:01.724Z,100920.28
2023-04-26T12:48:29.155Z,100926.91
2023-04-26T12:50:56.096Z,100926.81
2023-04-26T12:53:22.873Z,100919.44
2023-04-26T12:55:49.527Z,100920.72
2023-04-26T12:58:16.259Z,100917.47
2023-04-26T13:00:44.596Z,100915.97
2023-04-26T13:03:14.629Z,100924.81
2023-04-26T13:05:41.922Z,100922.44
2023-04-26T13:08:08.894Z,100926.56
2023-04-26T13:10:35.530Z,100918.31
2023-04-26T13:13:02.393Z,100921.94
2023-04-26T13:15:29.978Z,100924.63
2023-04-26T13:17:58.150Z,100911.31
2023-04-26T13:20:26.681Z,100910.56
2023-04-26T13:22:54.439Z,100910.19
2023-04-26T13:25:21.453Z,100913.91
2023-04-26T13:27:48.132Z,100916.03
2023-04-26T13:30:15.048Z,100916.13
2023-04-26T13:32:41.709Z,100911.91
2023-04-26T13:35:08.833Z,100908.63
2023-04-26T13:37:35.616Z,100911.94
2023-04-26T13:40:02.351Z,100909.06
2023-04-26T13:42:29.195Z,100902.50
2023-04-26T13:44:57.014Z,100906.22
2023-04-26T13:47:23.709Z,100902.56
2023-04-26T13:49:51.127Z,100899.59
2023-04-26T13:52:18.321Z,100895.78
2023-04-26T13:54:44.991Z,100906.09
2023-04-26T13:57:11.912Z,100904.53
2023-04-26T13:59:40.374Z,100901.75
2023-04-26T14:02:07.259Z,100906.16
2023-04-26T14:04:34.269Z,100908.19
2023-04-26T14:07:01.176Z,100901.03
2023-04-26T14:09:28.077Z,100912.00
2023-04-26T14:12:07.895Z,100906.59
2023-04-26T14:14:35.711Z,100915.78
2023-04-26T14:17:02.344Z,100911.28
2023-04-26T14:19:29.150Z,100911.78
2023-04-26T14:21:55.830Z,100910.69
2023-04-26T14:24:22.506Z,100919.50
2023-04-26T14:26:49.145Z,100917.56
2023-04-26T14:29:15.812Z,100917.56
2023-04-26T14:31:42.487Z,100910.09
2023-04-26T14:34:09.238Z,100914.31
2023-04-26T14:36:37.241Z,100917.53
2023-04-26T14:39:04.215Z,100905.59
2023-04-26T14:41:31.111Z,100911.25
2023-04-26T14:43:57.755Z,100902.53
2023-04-26T14:46:24.495Z,100905.94
2023-04-26T14:48:51.271Z,100912.88
2023-04-26T14:51:19.643Z,100914.56
2023-04-26T14:53:46.357Z,100902.91
2023-04-26T14:56:13.057Z,100902.16
2023-04-26T14:58:39.731Z,100915.81
2023-04-26T15:01:06.485Z,100911.38
2023-04-26T15:03:33.635Z,100911.81
2023-04-26T15:06:00.369Z,100917.44
2023-04-26T15:08:27.243Z,100915.00
2023-04-26T15:10:54.162Z,100911.03
2023-04-26T15:13:20.833Z,100919.34
2023-04-26T15:15:47.543Z,100911.72
2023-04-26T15:18:14.265Z,100915.66
2023-04-26T15:20:41.560Z,100914.03
2023-04-26T15:23:08.594Z,100903.69
2023-04-26T15:25:37.284Z,100913.88
2023-04-26T15:28:04.497Z,100902.44
2023-04-26T15:30:31.546Z,100908.91
2023-04-26T15:32:58.346Z,100890.56
2023-04-26T15:35:25.278Z,100897.16
2023-04-26T15:37:53.925Z,100894.69
2023-04-26T15:40:22.218Z,100897.44
2023-04-26T15:42:49.523Z,100892.34
2023-04-26T15:45:16.405Z,100896.72
2023-04-26T15:47:43.281Z,100888.31
2023-04-26T15:50:10.318Z,100891.56
2023-04-26T15:52:39.283Z,100878.81
2023-04-26T15:55:07.333Z,100887.69
2023-04-26T15:57:34.731Z,100877.72
2023-04-26T16:00:01.829Z,100878.16
2023-04-26T16:02:28.853Z,100877.31
2023-04-26T16:04:56.332Z,100867.72
2023-04-26T16:07:23.654Z,100869.66
2023-04-26T16:09:50.714Z,100869.22
2023-04-26T16:12:17.417Z,100872.13
2023-04-26T16:14:44.140Z,100875.06
2023-04-26T16:17:10.962Z,100882.88
2023-04-26T16:19:37.657Z,100879.06
2023-04-26T16:22:04.432Z,100876.78
2023-04-26T16:24:31.533Z,100876.63
2023-04-26T16:26:58.562Z,100868.22
2023-04-26T16:29:25.422Z,100869.78
2023-04-26T16:31:52.827Z,100867.53
2023-04-26T16:34:20.007Z,100869.63
2023-04-26T16:36:46.852Z,100872.94
2023-04-26T16:39:15.841Z,100871.44
2023-04-26T16:41:42.931Z,100860.69
2023-04-26T16:44:09.669Z,100877.56
2023-04-26T16:46:36.460Z,100873.09
2023-04-26T16:49:09.556Z,100871.88
2023-04-26T16:51:37.229Z,100870.63
2023-04-26T16:54:04.182Z,100868.31
2023-04-26T16:56:31.022Z,100871.59
2023-04-26T16:58:57.645Z,100874.00
2023-04-26T17:01:24.274Z,100878.06
2023-04-26T17:06:18.586Z,100869.03
2023-04-26T17:08:45.993Z,100869.00
2023-04-26T17:11:18.633Z,100868.19
2023-04-26T17:13:45.358Z,100867.38
2023-04-26T17:16:12.377Z,100868.25
2023-04-26T17:18:39.134Z,100869.47
2023-04-26T17:21:06.130Z,100864.19
2023-04-26T17:23:33.794Z,100870.91
2023-04-26T17:26:02.040Z,100868.31
2023-04-26T17:28:28.920Z,100867.81
2023-04-26T17:30:57.252Z,100869.03
2023-04-26T17:33:25.480Z,100872.72
2023-04-26T17:35:52.209Z,100863.53
2023-04-26T17:38:19.515Z,100871.03
2023-04-26T17:40:46.168Z,100872.06
2023-04-26T17:43:12.896Z,100873.84
2023-04-26T17:45:39.591Z,100866.13
2023-04-26T17:48:10.926Z,100871.88
2023-04-26T17:50:37.663Z,100870.22
2023-04-26T17:53:06.039Z,100870.19
2023-04-26T17:55:33.073Z,100858.84
2023-04-26T17:57:59.917Z,100860.34
2023-04-26T18:00:26.998Z,100862.00
2023-04-26T18:05:20.571Z,100860.13
2023-04-26T18:07:47.406Z,100852.84
2023-04-26T18:10:14.387Z,100851.78
2023-04-26T18:12:41.030Z,100846.75
2023-04-26T18:15:08.916Z,100840.16
2023-04-26T18:17:36.128Z,100845.91
2023-04-26T18:20:02.994Z,100835.72
2023-04-26T18:22:29.652Z,100835.16
2023-04-26T18:24:56.320Z,100840.06
2023-04-26T18:27:23.046Z,100836.41
2023-04-26T18:29:49.693Z,100819.34
2023-04-26T18:32:16.489Z,100823.97
2023-04-26T18:34:44.119Z,100831.06
2023-04-26T18:37:10.861Z,100840.38
2023-04-26T18:39:40.580Z,100831.06
2023-04-26T18:42:07.435Z,100830.75
2023-04-26T18:44:35.150Z,100834.81
2023-04-26T18:47:01.863Z,100832.09
2023-04-26T18:49:28.882Z,100835.59
2023-04-26T18:51:57.338Z,100833.56
2023-04-26T18:54:24.242Z,100833.09
2023-04-26T18:56:50.954Z,100825.66
2023-04-26T18:59:17.839Z,100816.16
2023-04-26T19:01:44.499Z,100825.28
2023-04-26T19:04:11.857Z,100828.47
2023-04-26T19:06:41.309Z,100827.59
2023-04-26T19:09:11.802Z,100837.22
2023-04-26T19:11:38.938Z,100841.50
2023-04-26T19:14:05.842Z,100837.84
2023-04-26T19:16:32.640Z,100834.97
2023-04-26T19:19:00.966Z,100834.78
2023-04-26T19:21:27.632Z,100839.31
2023-04-26T19:23:54.254Z,100842.31
2023-04-26T19:26:20.947Z,100840.81
2023-04-26T19:28:47.835Z,100846.59
2023-04-26T19:31:14.596Z,100842.38
2023-04-26T19:33:41.545Z,100843.44
2023-04-26T19:36:09.920Z,100848.03
2023-04-26T19:38:36.583Z,100847.16
2023-04-26T19:41:03.237Z,100851.63
2023-04-26T19:43:29.918Z,100857.44
2023-04-26T19:45:56.650Z,100858.69
2023-04-26T19:48:23.322Z,100869.06
2023-04-26T19:50:49.969Z,100862.72
2023-04-26T19:53:16.667Z,100863.31
2023-04-26T19:55:43.389Z,100853.41
2023-04-26T19:58:11.033Z,100856.16
2023-04-26T20:00:38.893Z,100854.19
2023-04-26T20:03:06.438Z,100852.91
2023-04-26T20:05:33.953Z,100848.06
2023-04-26T20:08:01.653Z,100847.97
2023-04-26T20:10:32.380Z,100854.31
2023-04-26T20:13:00.375Z,100842.31
2023-04-26T20:15:27.990Z,100850.75
2023-04-26T20:17:55.212Z,100851.31
2023-04-26T20:20:22.046Z,100855.00
2023-04-26T20:22:48.860Z,100850.63
2023-04-26T20:25:15.858Z,100859.63
2023-04-26T20:27:42.687Z,100855.94
2023-04-26T20:30:09.902Z,100851.19
2023-04-26T20:32:36.566Z,100847.16
2023-04-26T20:35:03.792Z,100853.41
2023-04-26T20:37:30.459Z,100849.94
2023-04-26T20:39:57.770Z,100858.25
2023-04-26T20:42:25.132Z,100864.16
2023-04-26T20:44:52.322Z,100872.56
2023-04-26T20:47:19.397Z,100881.34
2023-04-26T20:49:46.028Z,100866.44
2023-04-26T20:52:14.263Z,100868.41
2023-04-26T20:54:41.154Z,100867.47
2023-04-26T20:57:08.436Z,100861.47
2023-04-26T20:59:35.143Z,100867.63
2023-04-26T21:02:02.955Z,100864.84
2023-04-26T21:04:29.870Z,100871.16
2023-04-26T21:06:57.135Z,100870.50
2023-04-26T21:09:23.755Z,100865.88
2023-04-26T21:11:50.477Z,100875.34
2023-04-26T21:14:19.416Z,100874.53
2023-04-26T21:16:46.172Z,100870.63
2023-04-26T21:19:12.901Z,100876.25
2023-04-26T21:21:40.294Z,100867.63
2023-04-26T21:24:07.349Z,100874.44
2023-04-26T21:26:36.027Z,100869.56
2023-04-26T21:29:02.710Z,100877.78
2023-04-26T21:31:29.596Z,100869.91
2023-04-26T21:33:56.502Z,100877.88
2023-04-26T21:36:23.243Z,100866.81
2023-04-26T21:38:49.844Z,100875.81
2023-04-26T21:41:16.592Z,100865.66
2023-04-26T21:43:43.181Z,100875.09
2023-04-26T21:46:09.850Z,100861.75
2023-04-26T21:48:36.601Z,100869.69
2023-04-26T21:51:03.365Z,100860.56
2023-04-26T21:53:30.044Z,100863.44
2023-04-26T21:55:56.661Z,100854.78
2023-04-26T21:58:23.443Z,100856.28
2023-04-26T22:00:51.560Z,100850.16
2023-04-26T22:03:18.907Z,100854.34
2023-04-26T22:05:46.911Z,100862.09
2023-04-26T22:08:13.799Z,100850.19
2023-04-26T22:10:40.551Z,100855.72
2023-04-26T22:13:07.269Z,100850.19
2023-04-26T22:15:33.881Z,100850.06
2023-04-26T22:18:00.881Z,100846.84
2023-04-26T22:20:30.006Z,100838.88
2023-04-26T22:22:57.705Z,100830.56
2023-04-26T22:25:25.218Z,100822.94
2023-04-26T22:27:51.848Z,100833.91
2023-04-26T22:30:25.615Z,100821.44
2023-04-26T22:32:55.617Z,100827.78
2023-04-26T22:35:24.479Z,100823.03
2023-04-26T22:37:51.851Z,100826.63
2023-04-26T22:40:18.866Z,100816.72
2023-04-26T22:42:45.599Z,100815.78
2023-04-26T22:45:12.743Z,100818.78
2023-04-26T22:47:40.342Z,100815.69
2023-04-26T22:50:08.166Z,100812.41
2023-04-26T22:52:35.319Z,100809.66
2023-04-26T22:55:02.530Z,100812.09
2023-04-26T22:57:29.870Z,100809.78
2023-04-26T22:59:57.166Z,100805.88
2023-04-26T23:02:24.320Z,100799.97
2023-04-26T23:04:51.438Z,100799.84
2023-04-26T23:07:18.216Z,100798.25
2023-04-26T23:09:44.980Z,100808.97
2023-04-26T23:12:11.672Z,100803.31
2023-04-26T23:14:38.271Z,100800.88
2023-04-26T23:17:05.788Z,100797.31
2023-04-26T23:19:33.113Z,100806.78
2023-04-26T23:21:59.910Z,100798.00
2023-04-26T23:24:26.959Z,100794.31
2023-04-26T23:26:53.791Z,100801.00
2023-04-26T23:29:21.470Z,100794.53
2023-04-26T23:31:48.300Z,100807.69
2023-04-26T23:34:15.018Z,100797.78
2023-04-26T23:36:41.641Z,100804.59
2023-04-26T23:39:08.967Z,100801.47
2023-04-26T23:41:35.955Z,100813.47
2023-04-26T23:44:02.627Z,100813.56
2023-04-26T23:46:29.387Z,100817.41
2023-04-26T23:48:56.220Z,100816.56
2023-04-26T23:51:22.965Z,100808.63
2023-04-26T23:53:49.650Z,100815.75
2023-04-26T23:56:16.444Z,100812.53
2023-04-26T23:58:43.099Z,100819.72
